Time;durP1;ratioP1;P1;durP2;ratioP2;P2;SDS_P1;SDS_P2;PMS_P1;PMS_P2;Temp;Humidity;BMP_temperature;BMP_pressure;BME280_temperature;BME280_humidity;BME280_pressure;Samples;Min_cycle;Max_cycle;Signal;HPM_P1;HPM_P2
2023/03/21 00:01:04;;;;;;;21.85;8.80;;;8.80;99.90;;;;;;4181347;28;20095;-86
2023/03/21 00:03:05;;;;;;;24.02;8.75;;;8.80;99.90;;;;;;4182441;28;20455;-86
2023/03/21 00:05:06;;;;;;;22.27;8.45;;;8.80;99.90;;;;;;4181175;28;20098;-85
2023/03/21 00:07:07;;;;;;;23.98;8.45;;;8.80;99.90;;;;;;4182422;28;20048;-85
2023/03/21 00:09:08;;;;;;;22.27;8.57;;;8.80;99.90;;;;;;4181637;28;20045;-84
2023/03/21 00:11:10;;;;;;;21.23;7.47;;;8.80;99.90;;;;;;4164226;28;20096;-85
2023/03/21 00:13:12;;;;;;;23.15;8.90;;;8.80;99.90;;;;;;4195018;28;20181;-85
2023/03/21 00:15:13;;;;;;;18.58;7.47;;;8.80;99.90;;;;;;4180171;28;20479;-85
2023/03/21 00:17:14;;;;;;;24.65;8.55;;;8.80;99.90;;;;;;4180619;28;20052;-85
2023/03/21 00:19:19;;;;;;;16.88;8.27;;;8.80;99.90;;;;;;4179576;28;20045;-85
2023/03/21 00:21:27;;;;;;;18.85;7.75;;;8.80;99.90;;;;;;4196690;28;20057;-85
2023/03/21 00:23:30;;;;;;;18.55;8.00;;;8.80;99.90;;;;;;4196632;28;20059;-85
2023/03/21 00:25:31;;;;;;;19.98;6.97;;;8.80;99.90;;;;;;4195581;28;20512;-85
2023/03/21 00:27:32;;;;;;;18.95;7.03;;;8.80;99.90;;;;;;4196525;28;20048;-85
2023/03/21 00:29:34;;;;;;;20.17;7.70;;;8.80;99.90;;;;;;4179075;28;20053;-85
2023/03/21 00:31:36;;;;;;;17.25;7.55;;;8.80;99.90;;;;;;4196187;28;20405;-85
2023/03/21 00:33:39;;;;;;;16.95;6.80;;;8.80;99.90;;;;;;4179996;28;20049;-85
2023/03/21 00:35:46;;;;;;;16.13;7.40;;;8.80;99.90;;;;;;4195672;28;20048;-85
2023/03/21 00:37:48;;;;;;;15.23;6.18;;;8.80;99.90;;;;;;4196266;28;20075;-85
2023/03/21 00:39:49;;;;;;;12.88;6.13;;;8.80;99.90;;;;;;4197333;28;20067;-85
2023/03/21 00:41:50;;;;;;;16.25;6.45;;;8.80;99.90;;;;;;4179628;28;20084;-85
2023/03/21 00:43:54;;;;;;;15.10;6.57;;;8.80;99.90;;;;;;4195806;28;20048;-85
2023/03/21 00:45:57;;;;;;;16.38;6.75;;;8.80;99.90;;;;;;4196661;28;20048;-85
2023/03/21 00:47:58;;;;;;;16.35;6.93;;;8.80;99.90;;;;;;4195729;28;20045;-85
2023/03/21 00:49:58;;;;;;;13.63;6.10;;;8.80;99.90;;;;;;4197346;28;20052;-85
2023/03/21 00:52:00;;;;;;;18.85;7.43;;;8.80;99.90;;;;;;4195654;28;20048;-85
2023/03/21 00:54:01;;;;;;;18.10;6.70;;;8.80;99.90;;;;;;4196084;28;20613;-85
2023/03/21 00:56:02;;;;;;;16.95;6.72;;;8.80;99.90;;;;;;4195961;28;20052;-85
2023/03/21 00:58:03;;;;;;;17.98;6.70;;;8.80;99.90;;;;;;4197172;28;20546;-85
2023/03/21 01:00:06;;;;;;;19.02;7.70;;;8.80;99.90;;;;;;4196394;28;20098;-85
2023/03/21 01:02:07;;;;;;;24.52;7.18;;;8.20;99.90;;;;;;4195775;28;20124;-85
2023/03/21 01:04:12;;;;;;;28.77;8.52;;;8.80;99.90;;;;;;4180031;28;20052;-86
2023/03/21 01:06:13;;;;;;;30.70;8.65;;;8.80;99.90;;;;;;4196227;28;20106;-85
2023/03/21 01:08:17;;;;;;;35.25;9.48;;;8.90;99.90;;;;;;4197861;28;20520;-85
2023/03/21 01:10:18;;;;;;;26.38;8.15;;;8.80;99.90;;;;;;4197108;28;20040;-85
2023/03/21 01:12:19;;;;;;;38.72;9.55;;;8.80;99.90;;;;;;4179608;28;20059;-85
2023/03/21 01:14:21;;;;;;;31.70;8.90;;;8.90;99.90;;;;;;4197085;28;20485;-86
2023/03/21 01:16:23;;;;;;;37.90;9.65;;;8.70;99.90;;;;;;4197378;28;20040;-85
2023/03/21 01:18:27;;;;;;;36.53;9.35;;;8.80;99.90;;;;;;4174308;28;20115;-85
2023/03/21 01:20:30;;;;;;;43.35;10.40;;;8.90;99.90;;;;;;4180970;28;20486;-86
2023/03/21 01:22:31;;;;;;;38.22;9.95;;;8.90;99.90;;;;;;4181037;28;20124;-86
2023/03/21 01:24:33;;;;;;;52.40;10.88;;;8.90;99.90;;;;;;4196911;28;20040;-85
2023/03/21 01:26:36;;;;;;;51.13;11.27;;;8.80;99.90;;;;;;4179357;28;20049;-85
2023/03/21 01:28:39;;;;;;;54.92;11.30;;;8.90;99.90;;;;;;4181240;28;20085;-85
2023/03/21 01:30:47;;;;;;;51.10;12.20;;;8.80;99.90;;;;;;4182462;28;20045;-85
2023/03/21 01:32:48;;;;;;;57.53;12.27;;;8.90;99.90;;;;;;4183246;28;20060;-85
2023/03/21 01:34:50;;;;;;;71.45;13.35;;;9.80;99.90;;;;;;4184345;28;20124;-85
2023/03/21 01:36:54;;;;;;;65.90;13.15;;;8.90;99.90;;;;;;4182662;28;20052;-85
2023/03/21 01:38:55;;;;;;;72.95;14.02;;;8.60;99.90;;;;;;4182307;28;20045;-86
2023/03/21 01:41:01;;;;;;;71.80;13.95;;;8.90;99.90;;;;;;4199092;28;21100;-85
2023/03/21 01:43:03;;;;;;;60.10;14.48;;;8.90;99.90;;;;;;4198610;28;20476;-86
2023/03/21 01:45:42;;;;;;;68.15;12.95;;;8.90;99.90;;;;;;4198878;28;20051;-85
2023/03/21 01:47:44;;;;;;;70.68;14.15;;;8.90;99.90;;;;;;4198305;28;20067;-85
2023/03/21 01:49:48;;;;;;;72.65;13.05;;;8.90;99.90;;;;;;4198922;28;20090;-84
2023/03/21 01:52:23;;;;;;;69.85;14.15;;;8.90;99.90;;;;;;4198217;28;20432;-84
2023/03/21 01:54:28;;;;;;;65.55;13.55;;;8.90;99.90;;;;;;4165574;28;20057;-84
2023/03/21 01:56:40;;;;;;;50.83;13.15;;;8.90;99.90;;;;;;4183491;28;20049;-84
2023/03/21 01:58:42;;;;;;;46.70;11.32;;;8.90;99.90;;;;;;4165454;28;20056;-85
2023/03/21 02:00:49;;;;;;;41.15;11.05;;;8.80;99.90;;;;;;4183593;28;20049;-84
2023/03/21 02:02:50;;;;;;;37.50;9.48;;;8.80;99.90;;;;;;4181973;28;20040;-84
2023/03/21 02:04:54;;;;;;;35.45;10.80;;;8.90;99.90;;;;;;4198530;28;20083;-85
2023/03/21 02:07:07;;;;;;;39.60;9.68;;;8.80;99.90;;;;;;4182704;28;20091;-85
2023/03/21 02:09:13;;;;;;;37.85;9.98;;;8.90;99.90;;;;;;4182119;28;20060;-84
2023/03/21 02:11:15;;;;;;;41.25;10.65;;;8.90;99.90;;;;;;4165718;28;20584;-84
2023/03/21 02:13:17;;;;;;;39.08;10.63;;;8.90;99.90;;;;;;4183361;28;20050;-84
2023/03/21 02:15:18;;;;;;;38.88;11.77;;;8.90;99.90;;;;;;4181747;28;20044;-85
2023/03/21 02:17:26;;;;;;;47.08;10.88;;;8.90;99.90;;;;;;4165107;28;20045;-85
2023/03/21 02:19:35;;;;;;;43.17;11.05;;;8.90;99.90;;;;;;4183100;28;20444;-84
2023/03/21 02:21:50;;;;;;;42.15;11.55;;;8.90;99.90;;;;;;4165688;28;20398;-84
2023/03/21 02:24:02;;;;;;;44.97;11.50;;;8.90;99.90;;;;;;4181275;28;20060;-85
2023/03/21 02:26:06;;;;;;;40.47;11.43;;;8.90;99.90;;;;;;4181219;28;20055;-84
2023/03/21 02:28:27;;;;;;;43.67;11.38;;;8.90;99.90;;;;;;4181998;28;20123;-85
2023/03/21 02:31:04;;;;;;;45.38;11.88;;;8.90;99.90;;;;;;4181191;28;20140;-84
2023/03/21 02:33:30;;;;;;;42.92;10.80;;;8.90;99.90;;;;;;4181164;28;20394;-85
2023/03/21 02:36:05;;;;;;;40.03;11.07;;;8.90;99.90;;;;;;4165167;28;20407;-85
2023/03/21 02:38:21;;;;;;;38.35;12.40;;;9.20;99.90;;;;;;4182080;28;20468;-84
2023/03/21 02:40:33;;;;;;;34.15;11.27;;;8.90;99.90;;;;;;4181397;28;20065;-85
2023/03/21 02:43:01;;;;;;;33.55;10.43;;;8.90;99.90;;;;;;4180131;28;20052;-84
2023/03/21 02:45:17;;;;;;;42.85;11.10;;;8.90;99.90;;;;;;4182711;28;20049;-84
2023/03/21 02:47:48;;;;;;;38.63;11.77;;;8.90;99.90;;;;;;4197925;28;20052;-85
2023/03/21 02:50:03;;;;;;;35.40;10.95;;;8.90;99.90;;;;;;4181273;28;20079;-84
2023/03/21 02:52:07;;;;;;;34.08;10.70;;;8.90;99.90;;;;;;4182039;28;20060;-84
2023/03/21 02:54:13;;;;;;;35.17;11.02;;;8.90;99.90;;;;;;4182851;28;20056;-85
2023/03/21 02:56:14;;;;;;;39.08;11.30;;;8.90;99.90;;;;;;4182252;28;20067;-84
2023/03/21 02:58:19;;;;;;;28.40;10.73;;;8.90;99.90;;;;;;4184073;28;20044;-84
2023/03/21 03:00:24;;;;;;;30.85;11.05;;;8.50;99.90;;;;;;4199567;28;20040;-84
2023/03/21 03:02:28;;;;;;;28.40;11.30;;;8.90;99.90;;;;;;4198538;28;20506;-84
2023/03/21 03:04:29;;;;;;;29.10;10.38;;;8.90;99.90;;;;;;4197509;28;20055;-84
2023/03/21 03:06:46;;;;;;;30.50;10.77;;;8.90;99.90;;;;;;4198285;28;20052;-85
2023/03/21 03:09:08;;;;;;;30.10;9.90;;;9.00;99.90;;;;;;4197653;28;20055;-85
2023/03/21 03:11:30;;;;;;;29.20;10.45;;;9.00;99.90;;;;;;4197397;28;20132;-85
2023/03/21 03:14:04;;;;;;;23.67;9.52;;;8.20;99.90;;;;;;4180767;28;20144;-85
2023/03/21 03:16:35;;;;;;;28.55;10.07;;;8.90;99.90;;;;;;4188614;28;20051;-85
2023/03/21 03:18:59;;;;;;;24.83;9.07;;;9.00;99.90;;;;;;4166085;28;20493;-85
2023/03/21 03:21:15;;;;;;;24.75;10.15;;;9.00;99.90;;;;;;4192416;28;20060;-85
2023/03/21 03:23:36;;;;;;;26.17;10.18;;;9.00;99.90;;;;;;4195910;28;20505;-85
2023/03/21 03:25:47;;;;;;;24.08;9.75;;;9.00;99.90;;;;;;4185387;28;20143;-85
2023/03/21 03:27:51;;;;;;;27.15;10.80;;;9.00;99.90;;;;;;4183901;28;20512;-85
2023/03/21 03:29:53;;;;;;;25.73;10.57;;;9.00;99.90;;;;;;4164762;28;20053;-86
2023/03/21 03:32:07;;;;;;;23.73;9.75;;;9.00;99.90;;;;;;4172359;28;20057;-85
2023/03/21 03:34:19;;;;;;;22.33;9.93;;;9.00;99.90;;;;;;4179983;28;20432;-85
2023/03/21 03:36:26;;;;;;;21.65;9.65;;;9.00;99.90;;;;;;4181987;28;20048;-85
2023/03/21 03:38:28;;;;;;;24.13;10.80;;;9.00;99.90;;;;;;4181461;28;20056;-86
2023/03/21 03:40:39;;;;;;;23.52;9.00;;;9.00;99.90;;;;;;4180296;28;20485;-85
2023/03/21 03:42:49;;;;;;;24.17;10.38;;;9.00;99.90;;;;;;4180208;28;20053;-85
2023/03/21 03:44:50;;;;;;;25.85;10.40;;;9.00;99.90;;;;;;4147360;28;20049;-86
2023/03/21 03:46:57;;;;;;;22.48;9.73;;;9.00;99.90;;;;;;4180317;28;20084;-86
2023/03/21 03:49:03;;;;;;;20.58;9.73;;;8.70;99.90;;;;;;4184871;28;20036;-85
2023/03/21 03:51:12;;;;;;;25.55;10.57;;;9.00;99.90;;;;;;4196473;28;20455;-86
2023/03/21 03:53:26;;;;;;;22.98;10.07;;;9.10;99.90;;;;;;4196867;28;20054;-86
2023/03/21 03:55:33;;;;;;;25.42;10.50;;;9.10;99.90;;;;;;4195223;28;20500;-86
2023/03/21 03:57:34;;;;;;;22.42;10.68;;;9.00;99.90;;;;;;4163366;28;20053;-86
2023/03/21 03:59:37;;;;;;;23.35;10.35;;;9.10;99.90;;;;;;4163251;28;20048;-86
2023/03/21 04:01:40;;;;;;;24.60;9.45;;;9.10;99.90;;;;;;4180973;28;20395;-85
2023/03/21 04:03:44;;;;;;;28.42;11.10;;;9.00;99.90;;;;;;4179800;28;20045;-85
2023/03/21 04:05:45;;;;;;;22.80;9.77;;;9.10;99.90;;;;;;4163025;28;20050;-85
2023/03/21 04:07:49;;;;;;;20.13;9.80;;;9.00;99.90;;;;;;4180932;28;20041;-86
2023/03/21 04:09:50;;;;;;;19.73;8.25;;;9.00;99.90;;;;;;4163065;28;20123;-86
2023/03/21 04:11:52;;;;;;;20.95;9.35;;;9.10;99.90;;;;;;4170453;28;20474;-84
2023/03/21 04:13:54;;;;;;;23.42;9.30;;;9.10;99.90;;;;;;4196852;28;20105;-84
2023/03/21 04:15:55;;;;;;;23.05;9.45;;;8.50;99.90;;;;;;4179262;28;20074;-85
2023/03/21 04:17:56;;;;;;;23.75;9.40;;;9.10;99.90;;;;;;4196914;28;20050;-85
2023/03/21 04:19:57;;;;;;;22.08;9.20;;;9.10;99.90;;;;;;4193089;28;20064;-84
2023/03/21 04:21:58;;;;;;;21.40;8.60;;;9.10;99.90;;;;;;4179264;28;20060;-86
2023/03/21 04:23:59;;;;;;;22.65;9.50;;;9.10;99.90;;;;;;4197085;28;20040;-85
2023/03/21 04:26:00;;;;;;;26.15;9.40;;;9.10;99.90;;;;;;4195779;28;20411;-86
2023/03/21 04:28:01;;;;;;;26.23;9.07;;;9.20;99.90;;;;;;4196114;28;20064;-85
2023/03/21 04:30:04;;;;;;;19.58;8.35;;;9.10;99.90;;;;;;4195306;28;20141;-86
2023/03/21 04:32:16;;;;;;;30.13;9.10;;;9.00;99.90;;;;;;4196794;28;20119;-86
2023/03/21 04:34:17;;;;;;;26.45;9.20;;;9.10;99.90;;;;;;4197208;28;20412;-84
2023/03/21 04:36:26;;;;;;;24.85;9.43;;;9.10;99.90;;;;;;4179567;28;20040;-84
2023/03/21 04:38:29;;;;;;;;;;;9.10;99.90;;;;;;4179385;28;20123;-86
2023/03/21 04:40:30;;;;;;;19.85;7.50;;;9.10;99.90;;;;;;4197459;28;19967;-85
2023/03/21 04:42:31;;;;;;;20.95;8.02;;;9.10;99.90;;;;;;4195962;28;20102;-83
2023/03/21 04:44:32;;;;;;;27.10;8.10;;;9.10;99.90;;;;;;4197160;28;20036;-83
2023/03/21 04:46:34;;;;;;;25.23;9.70;;;9.10;99.90;;;;;;4191630;28;20064;-84
2023/03/21 04:48:35;;;;;;;23.10;9.25;;;9.10;99.90;;;;;;4179014;28;20045;-83
2023/03/21 04:50:36;;;;;;;21.13;8.30;;;9.10;99.90;;;;;;4182419;28;20037;-86
2023/03/21 04:52:37;;;;;;;17.70;7.43;;;9.10;99.90;;;;;;4162810;28;20056;-86
2023/03/21 04:54:38;;;;;;;20.38;7.25;;;9.10;99.90;;;;;;4179884;28;20111;-86
2023/03/21 04:56:38;;;;;;;21.08;8.05;;;9.10;99.90;;;;;;4179130;28;20056;-86
2023/03/21 04:58:40;;;;;;;25.13;8.77;;;9.10;99.90;;;;;;4179846;28;20056;-85
2023/03/21 05:00:40;;;;;;;23.35;8.25;;;9.10;99.90;;;;;;4180305;28;20931;-86
2023/03/21 05:02:41;;;;;;;19.55;7.65;;;9.10;99.90;;;;;;4180846;28;20117;-85
2023/03/21 05:04:42;;;;;;;19.95;7.47;;;9.10;99.90;;;;;;4177806;28;20048;-85
2023/03/21 05:06:44;;;;;;;18.45;6.50;;;9.10;99.90;;;;;;4212153;28;20162;-86
2023/03/21 05:08:45;;;;;;;20.75;7.22;;;9.10;99.90;;;;;;4196704;28;20093;-85
2023/03/21 05:10:46;;;;;;;17.83;7.85;;;9.10;99.90;;;;;;4180825;28;20125;-85
2023/03/21 05:12:48;;;;;;;17.27;6.70;;;8.70;99.90;;;;;;4197013;28;20056;-85
2023/03/21 05:14:49;;;;;;;20.30;6.85;;;9.10;99.90;;;;;;4196701;28;20047;-86
2023/03/21 05:16:55;;;;;;;20.55;7.13;;;9.10;99.90;;;;;;4195754;28;20191;-83
2023/03/21 05:18:58;;;;;;;23.73;8.05;;;9.10;99.90;;;;;;4178771;28;20029;-85
2023/03/21 05:20:58;;;;;;;19.15;7.07;;;9.10;99.90;;;;;;4189515;28;20056;-83
2023/03/21 05:22:59;;;;;;;15.82;6.43;;;9.10;99.90;;;;;;4181452;28;20030;-84
2023/03/21 05:25:00;;;;;;;19.88;7.22;;;9.10;99.90;;;;;;4198719;28;20049;-84
2023/03/21 05:27:02;;;;;;;18.42;7.57;;;9.40;99.90;;;;;;4186267;28;20056;-85
2023/03/21 05:29:03;;;;;;;20.90;7.75;;;9.10;99.90;;;;;;4181919;28;20171;-84
2023/03/21 05:31:05;;;;;;;16.38;6.97;;;9.10;99.90;;;;;;4180251;28;20144;-85
2023/03/21 05:33:06;;;;;;;17.15;6.65;;;9.10;99.90;;;;;;4180830;28;20051;-84
2023/03/21 05:35:08;;;;;;;16.30;6.82;;;9.10;99.90;;;;;;4174356;28;20079;-85
2023/03/21 05:37:08;;;;;;;20.45;7.28;;;9.10;99.90;;;;;;4175316;28;20539;-85
2023/03/21 05:39:10;;;;;;;18.15;7.28;;;9.10;99.90;;;;;;4193683;28;20045;-84
2023/03/21 05:41:12;;;;;;;22.00;7.53;;;8.60;99.90;;;;;;4196650;28;20043;-84
2023/03/21 05:43:13;;;;;;;21.98;7.20;;;9.10;99.90;;;;;;4188798;28;20033;-87
2023/03/21 05:45:15;;;;;;;15.68;6.60;;;9.10;99.90;;;;;;4166669;28;20072;-85
2023/03/21 05:47:17;;;;;;;18.88;7.20;;;9.10;99.90;;;;;;4185932;28;20065;-84
2023/03/21 05:49:18;;;;;;;18.00;6.60;;;9.10;99.90;;;;;;4195523;28;20515;-85
2023/03/21 05:51:18;;;;;;;22.40;7.97;;;9.10;99.90;;;;;;4196005;28;20044;-84
2023/03/21 05:53:22;;;;;;;23.13;7.43;;;9.10;99.90;;;;;;4196685;28;20074;-85
2023/03/21 05:55:22;;;;;;;19.95;7.45;;;8.40;99.90;;;;;;4178628;28;20551;-85
2023/03/21 05:57:26;;;;;;;19.08;7.05;;;9.10;99.90;;;;;;4180021;28;20061;-85
2023/03/21 05:59:27;;;;;;;17.45;6.63;;;9.10;99.90;;;;;;4184092;28;20076;-85
2023/03/21 06:01:28;;;;;;;23.33;8.32;;;9.10;99.90;;;;;;4176385;28;20044;-84
2023/03/21 06:03:29;;;;;;;17.92;7.43;;;9.10;99.90;;;;;;4180290;28;20076;-84
2023/03/21 06:05:29;;;;;;;20.90;7.15;;;9.10;99.90;;;;;;4179653;28;20045;-85
2023/03/21 06:07:31;;;;;;;19.58;7.78;;;9.10;99.90;;;;;;4178969;28;20053;-85
2023/03/21 06:09:33;;;;;;;16.27;7.20;;;9.10;99.90;;;;;;4178533;28;20110;-86
2023/03/21 06:11:37;;;;;;;18.52;6.68;;;9.10;99.90;;;;;;4193179;28;20429;-85
2023/03/21 06:13:38;;;;;;;18.35;7.45;;;9.10;99.90;;;;;;4213355;28;20117;-86
2023/03/21 06:15:39;;;;;;;14.02;6.20;;;9.10;99.90;;;;;;4195506;28;20119;-86
2023/03/21 06:17:40;;;;;;;16.85;6.47;;;9.10;99.90;;;;;;4196826;28;20454;-85
2023/03/21 06:19:41;;;;;;;17.40;6.43;;;9.10;99.90;;;;;;4197939;28;20117;-85
2023/03/21 06:21:42;;;;;;;15.10;6.25;;;9.20;99.90;;;;;;4215291;28;20118;-86
2023/03/21 06:23:46;;;;;;;15.77;6.70;;;9.20;99.90;;;;;;4216153;28;20047;-85
2023/03/21 06:25:48;;;;;;;14.13;6.30;;;9.20;99.90;;;;;;4216287;28;20548;-85
2023/03/21 06:27:49;;;;;;;17.52;6.57;;;9.20;99.90;;;;;;4182225;28;20481;-85
2023/03/21 06:29:56;;;;;;;13.80;6.00;;;9.10;99.90;;;;;;4184596;28;20121;-86
2023/03/21 06:31:57;;;;;;;13.55;5.35;;;9.20;99.90;;;;;;4185643;28;20052;-83
2023/03/21 06:33:59;;;;;;;15.40;6.05;;;9.20;99.90;;;;;;4226148;28;20067;-82
2023/03/21 06:36:00;;;;;;;15.50;5.28;;;9.20;99.90;;;;;;4233433;28;20130;-83
2023/03/21 06:38:01;;;;;;;12.10;5.13;;;9.20;99.90;;;;;;4198063;28;20059;-83
2023/03/21 06:40:03;;;;;;;14.80;5.95;;;9.20;99.90;;;;;;4214253;28;20099;-83
2023/03/21 06:42:04;;;;;;;13.30;6.05;;;9.20;99.90;;;;;;4214386;28;20123;-83
2023/03/21 06:44:05;;;;;;;11.32;5.50;;;9.20;99.90;;;;;;4214288;28;20071;-84
2023/03/21 06:46:07;;;;;;;13.57;5.38;;;9.30;99.90;;;;;;4229302;28;20114;-83
2023/03/21 06:48:08;;;;;;;13.88;6.00;;;9.20;99.90;;;;;;4214061;28;20052;-83
2023/03/21 06:50:09;;;;;;;11.57;4.97;;;9.30;99.90;;;;;;4204709;28;20576;-84
2023/03/21 06:52:10;;;;;;;12.20;5.53;;;9.30;99.90;;;;;;4180838;28;20128;-85
2023/03/21 06:54:13;;;;;;;10.73;5.25;;;9.30;99.90;;;;;;4197095;28;20508;-84
2023/03/21 06:56:15;;;;;;;12.57;5.22;;;9.30;99.90;;;;;;4223777;27;20035;-85
2023/03/21 06:58:16;;;;;;;12.63;5.60;;;9.30;99.90;;;;;;4213460;28;20040;-85
2023/03/21 07:00:18;;;;;;;13.63;6.72;;;9.30;99.90;;;;;;4215940;28;20436;-86
2023/03/21 07:02:19;;;;;;;13.98;5.88;;;9.30;99.90;;;;;;4214502;28;20054;-85
2023/03/21 07:04:20;;;;;;;16.02;6.53;;;9.30;99.90;;;;;;4229892;28;20089;-84
2023/03/21 07:06:25;;;;;;;12.30;5.30;;;9.30;99.90;;;;;;4232610;27;20128;-85
2023/03/21 07:08:26;;;;;;;14.48;5.95;;;9.30;99.90;;;;;;4231160;27;20039;-85
2023/03/21 07:10:26;;;;;;;15.93;6.43;;;9.40;99.90;;;;;;4198607;28;20052;-85
2023/03/21 07:12:27;;;;;;;12.38;6.22;;;9.40;99.90;;;;;;4250104;27;20055;-85
2023/03/21 07:14:30;;;;;;;13.10;5.70;;;9.40;99.90;;;;;;4233608;27;20047;-85
2023/03/21 07:16:31;;;;;;;11.57;5.20;;;9.40;99.90;;;;;;4214517;28;20048;-85
2023/03/21 07:18:32;;;;;;;14.00;5.78;;;9.40;99.90;;;;;;4201785;28;20497;-85
2023/03/21 07:20:34;;;;;;;11.45;5.03;;;9.40;99.90;;;;;;4213278;28;20059;-85
2023/03/21 07:22:35;;;;;;;14.88;6.13;;;9.40;99.90;;;;;;4199281;28;20091;-84
2023/03/21 07:24:36;;;;;;;12.25;5.50;;;9.40;99.90;;;;;;4248805;27;20390;-85
2023/03/21 07:26:36;;;;;;;13.90;6.53;;;9.40;99.90;;;;;;4197943;28;20423;-85
2023/03/21 07:28:37;;;;;;;12.30;6.03;;;9.40;99.90;;;;;;4198592;28;20045;-85
2023/03/21 07:30:38;;;;;;;13.00;6.05;;;9.40;99.90;;;;;;4230143;28;20040;-86
2023/03/21 07:32:39;;;;;;;10.82;5.50;;;9.40;99.90;;;;;;4199303;28;20086;-84
2023/03/21 07:34:41;;;;;;;12.43;6.18;;;9.40;99.90;;;;;;4229404;28;20052;-84
2023/03/21 07:36:42;;;;;;;11.70;5.15;;;9.40;99.90;;;;;;4199135;28;20612;-84
2023/03/21 07:38:44;;;;;;;13.95;6.35;;;9.40;99.90;;;;;;4211450;28;20252;-84
2023/03/21 07:40:47;;;;;;;12.93;5.80;;;9.40;99.90;;;;;;4233805;27;20047;-84
2023/03/21 07:42:49;;;;;;;11.45;5.60;;;9.50;99.90;;;;;;4249364;27;20100;-84
2023/03/21 07:44:51;;;;;;;11.68;5.82;;;9.50;99.90;;;;;;4246483;27;20039;-83
2023/03/21 07:46:56;;;;;;;11.98;5.25;;;9.50;99.90;;;;;;4236933;27;20046;-85
2023/03/21 07:48:58;;;;;;;10.88;5.40;;;9.50;99.90;;;;;;4240876;27;20036;-85
2023/03/21 07:50:59;;;;;;;12.18;5.22;;;8.70;99.90;;;;;;4236936;27;20044;-85
2023/03/21 07:53:00;;;;;;;8.85;4.85;;;9.20;99.90;;;;;;4183700;28;20041;-84
2023/03/21 07:55:01;;;;;;;9.48;5.32;;;9.50;99.90;;;;;;4209332;28;20044;-83
2023/03/21 07:57:03;;;;;;;11.02;5.38;;;9.50;99.90;;;;;;4207065;28;20112;-83
2023/03/21 07:59:04;;;;;;;8.77;4.50;;;9.50;99.90;;;;;;4240275;27;20052;-83
2023/03/21 08:01:05;;;;;;;10.30;5.32;;;9.50;99.90;;;;;;4226054;27;20031;-83
2023/03/21 08:03:06;;;;;;;10.05;4.30;;;9.50;99.90;;;;;;4225413;28;20580;-83
2023/03/21 08:05:07;;;;;;;9.02;4.40;;;9.50;99.90;;;;;;4237650;27;20118;-83
2023/03/21 08:07:08;;;;;;;7.90;4.68;;;9.50;99.90;;;;;;4225043;28;20537;-83
2023/03/21 08:09:09;;;;;;;7.72;4.13;;;9.60;99.90;;;;;;4232385;28;20047;-84
2023/03/21 08:11:11;;;;;;;7.35;4.03;;;9.60;99.90;;;;;;4213196;28;20517;-83
2023/03/21 08:13:12;;;;;;;9.07;4.47;;;9.50;99.90;;;;;;4227502;27;20081;-83
2023/03/21 08:15:14;;;;;;;7.88;4.15;;;9.60;99.90;;;;;;4242681;27;20043;-84
2023/03/21 08:17:15;;;;;;;6.35;3.80;;;9.60;99.90;;;;;;4203945;28;20054;-83
2023/03/21 08:19:19;;;;;;;7.32;4.60;;;9.60;99.90;;;;;;4241689;27;20134;-83
2023/03/21 08:21:20;;;;;;;7.70;4.30;;;9.60;99.90;;;;;;4239476;27;20491;-83
2023/03/21 08:23:23;;;;;;;7.00;3.72;;;9.60;99.90;;;;;;4205478;28;20052;-83
2023/03/21 08:25:24;;;;;;;9.63;4.28;;;9.60;99.90;;;;;;4221915;28;20396;-84
2023/03/21 08:27:26;;;;;;;7.93;4.10;;;9.70;99.90;;;;;;4240789;27;20096;-86
2023/03/21 08:29:27;;;;;;;5.90;3.50;;;9.70;99.90;;;;;;4214561;28;20043;-85
2023/03/21 08:31:28;;;;;;;7.22;4.10;;;9.70;99.90;;;;;;4240215;27;20388;-86
2023/03/21 08:33:29;;;;;;;7.45;3.95;;;9.70;99.90;;;;;;4240800;27;20035;-85
2023/03/21 08:35:30;;;;;;;5.85;3.28;;;9.70;99.90;;;;;;4243175;27;20035;-85
2023/03/21 08:37:31;;;;;;;6.53;3.50;;;9.70;99.90;;;;;;4242359;27;20043;-85
2023/03/21 08:39:31;;;;;;;5.93;3.75;;;9.70;99.90;;;;;;4221893;28;20126;-85
2023/03/21 08:41:36;;;;;;;6.85;3.47;;;10.00;99.90;;;;;;4196981;28;20127;-85
2023/03/21 08:43:37;;;;;;;5.10;3.00;;;9.70;99.90;;;;;;4241891;27;20112;-85
2023/03/21 08:45:38;;;;;;;5.22;3.00;;;9.70;99.90;;;;;;4238416;27;20565;-83
2023/03/21 08:47:39;;;;;;;6.75;3.80;;;9.70;99.90;;;;;;4241476;27;20122;-85
2023/03/21 08:49:41;;;;;;;5.57;3.45;;;9.70;99.90;;;;;;4220087;28;20503;-85
2023/03/21 08:51:44;;;;;;;5.68;3.47;;;9.60;99.90;;;;;;4234903;27;20047;-84
2023/03/21 08:53:45;;;;;;;6.10;3.33;;;9.70;99.90;;;;;;4199469;28;20036;-85
2023/03/21 08:55:46;;;;;;;5.22;3.03;;;9.70;99.90;;;;;;4220300;28;20127;-85
2023/03/21 08:57:46;;;;;;;5.63;3.00;;;9.70;99.90;;;;;;4210523;28;20515;-84
2023/03/21 08:59:47;;;;;;;6.50;3.30;;;9.70;99.90;;;;;;4240409;27;20038;-84
2023/03/21 09:01:48;;;;;;;5.20;3.00;;;9.70;99.90;;;;;;4203192;28;20446;-86
2023/03/21 09:03:49;;;;;;;4.88;3.10;;;9.70;99.90;;;;;;4237976;28;20491;-86
2023/03/21 09:05:54;;;;;;;4.72;2.70;;;9.70;99.90;;;;;;4225792;28;20458;-86
2023/03/21 09:07:56;;;;;;;7.15;3.40;;;9.70;99.90;;;;;;4194545;28;20044;-86
2023/03/21 09:09:57;;;;;;;3.85;2.53;;;9.30;99.90;;;;;;4220631;28;20054;-85
2023/03/21 09:11:58;;;;;;;5.40;3.08;;;9.70;99.90;;;;;;4206044;28;20504;-86
2023/03/21 09:13:59;;;;;;;4.00;2.80;;;9.70;99.90;;;;;;4197149;28;20045;-86
2023/03/21 09:16:00;;;;;;;4.45;2.80;;;9.70;99.90;;;;;;4228192;28;20053;-85
2023/03/21 09:18:12;;;;;;;7.88;2.90;;;9.70;99.90;;;;;;4206713;28;20559;-85
2023/03/21 09:20:19;;;;;;;8.20;3.15;;;9.70;99.90;;;;;;4212567;28;20258;-85
2023/03/21 09:22:22;;;;;;;4.95;3.03;;;9.70;99.90;;;;;;4224987;28;20052;-86
2023/03/21 09:24:23;;;;;;;4.85;3.25;;;9.70;99.90;;;;;;4226572;28;20424;-86
2023/03/21 09:26:26;;;;;;;6.55;3.50;;;9.70;99.90;;;;;;4231955;28;20039;-87
2023/03/21 09:28:27;;;;;;;11.18;4.05;;;9.70;99.90;;;;;;4192371;28;20097;-87
2023/03/21 09:30:30;;;;;;;8.95;4.35;;;9.70;99.90;;;;;;4232082;28;20043;-87
2023/03/21 09:32:31;;;;;;;10.02;4.00;;;9.70;99.90;;;;;;4215233;28;20048;-87
2023/03/21 09:34:33;;;;;;;8.73;4.70;;;9.70;99.90;;;;;;4215503;28;20127;-86
2023/03/21 09:36:35;;;;;;;9.70;4.75;;;9.70;99.90;;;;;;4200948;28;20076;-86
2023/03/21 09:38:36;;;;;;;14.82;5.00;;;9.70;99.90;;;;;;4213098;28;20515;-86
2023/03/21 09:40:59;;;;;;;10.10;5.32;;;9.70;99.90;;;;;;4185519;28;20148;-85
2023/03/21 09:43:06;;;;;;;9.48;5.20;;;9.70;99.90;;;;;;4184819;28;20591;-86
2023/03/21 09:45:34;;;;;;;9.70;5.60;;;9.70;99.90;;;;;;4207011;28;20126;-87
2023/03/21 09:47:51;;;;;;;8.68;5.32;;;9.70;99.90;;;;;;4202881;28;20122;-86
2023/03/21 09:50:03;;;;;;;13.10;5.97;;;9.70;99.90;;;;;;4208182;28;20117;-86
2023/03/21 09:52:17;;;;;;;11.93;6.15;;;9.70;99.90;;;;;;4226800;28;20028;-86
2023/03/21 09:54:26;;;;;;;15.85;6.10;;;9.80;99.90;;;;;;4222689;27;20047;-85
2023/03/21 09:56:27;;;;;;;13.20;6.35;;;9.80;99.90;;;;;;4199214;28;20063;-85
2023/03/21 09:58:55;;;;;;;9.80;6.25;;;9.80;99.90;;;;;;4212772;28;20079;-86
2023/03/21 10:01:09;;;;;;;10.60;6.10;;;9.80;99.90;;;;;;4233305;27;20372;-86
2023/03/21 10:03:26;;;;;;;11.93;6.25;;;9.80;99.90;;;;;;4189411;28;20965;-86
2023/03/21 10:05:30;;;;;;;10.95;5.93;;;9.60;99.90;;;;;;4206580;28;20048;-86
2023/03/21 10:07:41;;;;;;;9.63;6.20;;;9.80;99.90;;;;;;4203090;28;20370;-86
2023/03/21 10:09:43;;;;;;;12.77;5.97;;;9.70;99.90;;;;;;4225675;27;20888;-85
2023/03/21 10:11:49;;;;;;;12.55;7.20;;;9.60;99.90;;;;;;4207811;28;20066;-85
2023/03/21 10:14:00;;;;;;;13.07;7.18;;;9.70;99.90;;;;;;4220416;28;20070;-86
2023/03/21 10:16:18;;;;;;;13.15;7.20;;;9.70;99.90;;;;;;4212924;28;20097;-84
2023/03/21 10:18:24;;;;;;;14.50;7.25;;;9.70;99.90;;;;;;4191997;28;20041;-85
2023/03/21 10:20:31;;;;;;;14.63;7.28;;;10.30;99.90;;;;;;4212500;28;20044;-85
2023/03/21 10:22:32;;;;;;;14.10;7.82;;;9.70;99.90;;;;;;4187419;28;20112;-85
2023/03/21 10:24:34;;;;;;;11.75;7.15;;;9.70;99.90;;;;;;4210295;28;20049;-85
2023/03/21 10:26:34;;;;;;;11.77;6.63;;;9.70;99.90;;;;;;4198432;28;20079;-85
2023/03/21 10:28:38;;;;;;;15.30;7.88;;;9.70;99.90;;;;;;4219429;28;20040;-85
2023/03/21 10:30:43;;;;;;;15.18;7.60;;;9.70;99.90;;;;;;4229256;27;20043;-85
2023/03/21 10:32:44;;;;;;;13.82;7.32;;;9.70;99.90;;;;;;4221333;27;20051;-86
2023/03/21 10:34:51;;;;;;;15.73;7.97;;;9.70;99.90;;;;;;4210434;28;20101;-85
2023/03/21 10:36:53;;;;;;;17.60;8.88;;;;;;;;;;4215968;28;20095;-85
2023/03/21 10:39:47;;;;;;;17.55;8.68;;;9.70;99.90;;;;;;4199014;28;20040;-85
2023/03/21 10:41:48;;;;;;;14.77;8.07;;;9.70;99.90;;;;;;4119819;28;20038;-85
2023/03/21 10:44:13;;;;;;;19.60;9.48;;;9.70;99.90;;;;;;4158565;28;20048;-85
2023/03/21 10:46:22;;;;;;;17.52;8.45;;;9.80;99.90;;;;;;4204488;28;20399;-86
2023/03/21 10:48:23;;;;;;;14.50;8.00;;;9.80;99.90;;;;;;4206858;28;20058;-85
2023/03/21 10:50:29;;;;;;;14.40;7.70;;;9.80;99.90;;;;;;4213671;28;20071;-85